Time;durP1;ratioP1;P1;durP2;ratioP2;P2;SDS_P1;SDS_P2;PMS_P1;PMS_P2;Temp;Humidity;BMP_temperature;BMP_pressure;BME280_temperature;BME280_humidity;BME280_pressure;Samples;Min_cycle;Max_cycle;Signal;HPM_P1;HPM_P2
2023/08/31 00:01:16;;;;;;;;;;;;;;;;;;4986397;28;19925;-84
2023/08/31 00:03:44;;;;;;;;;;;;;;;;;;4984124;28;19936;-82
2023/08/31 00:06:10;;;;;;;;;;;;;;;;;;5018559;28;19922;-83
2023/08/31 00:08:37;;;;;;;;;;;;;;;;;;5008630;28;19964;-82
2023/08/31 00:11:03;;;;;;;;;;;;;;;;;;5016040;28;19926;-82
2023/08/31 00:13:30;;;;;;;;;;;;;;;;;;4984576;28;20294;-82
2023/08/31 00:15:57;;;;;;;;;;;;;;;;;;4984359;28;19922;-83
2023/08/31 00:18:24;;;;;;;;;;;;;;;;;;4994672;28;19922;-81
2023/08/31 00:20:50;;;;;;;;;;;;;;;;;;4983588;28;19926;-83
2023/08/31 00:23:17;;;;;;;;;;;;;;;;;;5017464;28;19921;-81
2023/08/31 00:25:43;;;;;;;;;;;;;;;;;;5015994;28;19964;-82
2023/08/31 00:28:10;;;;;;;;;;;;;;;;;;5001247;28;20341;-83
2023/08/31 00:30:36;;;;;;;;;;;;;;;;;;5015531;28;19926;-83
2023/08/31 00:33:04;;;;;;;;;;;;;;;;;;5015235;28;19926;-82
2023/08/31 00:35:30;;;;;;;;;;;;;;;;;;5008282;28;19929;-82
2023/08/31 00:37:58;;;;;;;;;;;;;;;;;;5019337;28;19941;-82
2023/08/31 00:40:25;;;;;;;;;;;;;;;;;;4983507;28;19929;-82
2023/08/31 00:42:51;;;;;;;;;;;;;;;;;;4981520;28;19981;-82
2023/08/31 00:45:19;;;;;;;;;;;;;;;;;;5018206;28;19922;-82
2023/08/31 00:47:47;;;;;;;;;;;;;;;;;;5018708;28;19932;-81
2023/08/31 00:50:13;;;;;;;;;;;;;;;;;;5016931;28;19922;-82
2023/08/31 00:52:40;;;;;;;;;;;;;;;;;;4982886;28;19921;-82
2023/08/31 00:55:08;;;;;;;;;;;;;;;;;;5000782;28;19922;-82
2023/08/31 00:57:34;;;;;;;;;;;;;;;;;;5016245;28;19922;-82
2023/08/31 01:00:01;;;;;;;;;;;;;;;;;;4984489;28;19961;-82
2023/08/31 01:02:28;;;;;;;;;;;;;;;;;;5032819;28;19925;-83
2023/08/31 01:05:05;;;;;;;;;;;;;;;;;;5013192;28;19957;-81
2023/08/31 01:07:31;;;;;;;;;;;;;;;;;;4986314;28;20376;-82
2023/08/31 01:09:58;;;;;;;;;;;;;;;;;;5016726;28;19953;-82
2023/08/31 01:12:29;;;;;;;;;;;;;;;;;;5017989;28;19926;-82
2023/08/31 01:14:59;;;;;;;;;;;;;;;;;;5000192;28;20019;-82
2023/08/31 01:17:26;;;;;;;;;;;;;;;;;;4984654;28;19934;-82
2023/08/31 01:19:52;;;;;;;;;;;;;;;;;;4991688;28;19922;-82
2023/08/31 01:22:19;;;;;;;;;;;;;;;;;;4984434;28;19929;-81
2023/08/31 01:24:46;;;;;;;;;;;;;;;;;;5013091;28;19929;-82
2023/08/31 01:27:12;;;;;;;;;;;;;;;;;;4998766;28;20004;-82
2023/08/31 01:29:39;;;;;;;;;;;;;;;;;;5015981;28;19984;-82
2023/08/31 01:32:05;;;;;;;;;;;;;;;;;;4985187;28;20028;-82
2023/08/31 01:34:31;;;;;;;;;;;;;;;;;;5017833;28;19969;-82
2023/08/31 01:36:58;;;;;;;;;;;;;;;;;;5001900;28;20295;-82
2023/08/31 01:39:25;;;;;;;;;;;;;;;;;;5001598;28;19928;-82
2023/08/31 01:41:51;;;;;;;;;;;;;;;;;;5016012;28;20025;-82
2023/08/31 01:44:18;;;;;;;;;;;;;;;;;;4987831;28;20013;-82
2023/08/31 01:46:44;;;;;;;;;;;;;;;;;;4991096;28;20256;-82
2023/08/31 01:49:10;;;;;;;;;;;;;;;;;;5000006;28;20012;-82
2023/08/31 01:51:37;;;;;;;;;;;;;;;;;;4983263;28;20385;-82
2023/08/31 01:54:05;;;;;;;;;;;;;;;;;;5000733;28;19953;-83
2023/08/31 01:56:31;;;;;;;;;;;;;;;;;;5000379;28;19925;-83
2023/08/31 01:58:58;;;;;;;;;;;;;;;;;;4998434;28;19922;-83
2023/08/31 02:01:25;;;;;;;;;;;;;;;;;;5009765;28;19977;-83
2023/08/31 02:03:51;;;;;;;;;;;;;;;;;;5006447;28;19937;-82
2023/08/31 02:06:17;;;;;;;;;;;;;;;;;;5018666;28;19929;-82
2023/08/31 02:08:47;;;;;;;;;;;;;;;;;;5014333;28;20312;-82
2023/08/31 02:11:16;;;;;;;;;;;;;;;;;;4990511;28;19930;-81
2023/08/31 02:13:42;;;;;;;;;;;;;;;;;;4983807;28;19973;-82
2023/08/31 02:16:09;;;;;;;;;;;;;;;;;;5000212;28;19921;-82
2023/08/31 02:18:35;;;;;;;;;;;;;;;;;;5000839;28;19925;-83
2023/08/31 02:21:04;;;;;;;;;;;;;;;;;;5017806;28;19922;-82
2023/08/31 02:23:30;;;;;;;;;;;;;;;;;;4998277;28;19922;-82
2023/08/31 02:26:00;;;;;;;;;;;;;;;;;;5014043;28;19925;-81
2023/08/31 02:28:27;;;;;;;;;;;;;;;;;;4984136;28;19926;-81
2023/08/31 02:30:53;;;;;;;;;;;;;;;;;;5015477;28;19958;-83
2023/08/31 02:33:20;;;;;;;;;;;;;;;;;;4986101;28;19969;-82
2023/08/31 02:35:46;;;;;;;;;;;;;;;;;;5016321;28;19926;-82
2023/08/31 02:38:12;;;;;;;;;;;;;;;;;;5006995;28;19921;-81
2023/08/31 02:40:39;;;;;;;;;;;;;;;;;;5013729;28;19922;-81
2023/08/31 02:43:07;;;;;;;;;;;;;;;;;;4999498;28;19922;-81
2023/08/31 02:45:33;;;;;;;;;;;;;;;;;;4983069;28;19926;-81
2023/08/31 02:48:00;;;;;;;;;;;;;;;;;;5014320;28;20387;-82
2023/08/31 02:50:27;;;;;;;;;;;;;;;;;;4982947;28;20020;-81
2023/08/31 02:52:53;;;;;;;;;;;;;;;;;;4990837;28;20371;-82
2023/08/31 02:55:21;;;;;;;;;;;;;;;;;;5002720;28;19930;-81
2023/08/31 02:57:47;;;;;;;;;;;;;;;;;;4996720;28;19922;-82
2023/08/31 03:00:14;;;;;;;;;;;;;;;;;;4998170;28;19928;-82
2023/08/31 03:02:41;;;;;;;;;;;;;;;;;;5007230;28;19926;-82
2023/08/31 03:05:07;;;;;;;;;;;;;;;;;;5017747;28;20359;-81
2023/08/31 03:07:34;;;;;;;;;;;;;;;;;;5017651;28;19922;-82
2023/08/31 03:10:00;;;;;;;;;;;;;;;;;;5006441;28;20407;-82
2023/08/31 03:12:28;;;;;;;;;;;;;;;;;;4989323;28;20379;-81
2023/08/31 03:14:54;;;;;;;;;;;;;;;;;;5014927;28;19929;-81
2023/08/31 03:17:21;;;;;;;;;;;;;;;;;;4984412;28;19922;-80
2023/08/31 03:19:48;;;;;;;;;;;;;;;;;;5013683;28;20394;-81
2023/08/31 03:22:14;;;;;;;;;;;;;;;;;;4985462;28;19922;-81
2023/08/31 03:24:41;;;;;;;;;;;;;;;;;;5014188;28;20335;-81
2023/08/31 03:27:07;;;;;;;;;;;;;;;;;;5013235;28;19922;-81
2023/08/31 03:29:34;;;;;;;;;;;;;;;;;;5012825;28;19922;-81
2023/08/31 03:32:01;;;;;;;;;;;;;;;;;;5007073;28;19951;-81
2023/08/31 03:34:28;;;;;;;;;;;;;;;;;;4997736;28;19922;-82
2023/08/31 03:36:54;;;;;;;;;;;;;;;;;;5016097;28;20354;-82
2023/08/31 03:39:20;;;;;;;;;;;;;;;;;;5018886;28;19968;-81
2023/08/31 03:41:47;;;;;;;;;;;;;;;;;;5010127;28;20458;-82
2023/08/31 03:44:13;;;;;;;;;;;;;;;;;;4985832;28;20370;-81
2023/08/31 03:46:40;;;;;;;;;;;;;;;;;;4981655;28;19962;-80
2023/08/31 03:49:06;;;;;;;;;;;;;;;;;;5009389;28;19929;-81
2023/08/31 03:51:32;;;;;;;;;;;;;;;;;;5017472;28;19922;-81
2023/08/31 03:54:00;;;;;;;;;;;;;;;;;;5010902;28;19976;-81
2023/08/31 03:56:26;;;;;;;;;;;;;;;;;;5018080;28;19929;-81
2023/08/31 03:58:53;;;;;;;;;;;;;;;;;;4993792;28;19929;-81
2023/08/31 04:01:19;;;;;;;;;;;;;;;;;;4986113;28;19922;-81
2023/08/31 04:03:46;;;;;;;;;;;;;;;;;;5000157;28;20379;-82
2023/08/31 04:06:13;;;;;;;;;;;;;;;;;;5019538;28;19922;-80
2023/08/31 04:08:41;;;;;;;;;;;;;;;;;;4985836;28;19922;-82
2023/08/31 04:11:07;;;;;;;;;;;;;;;;;;5018929;28;19921;-81
2023/08/31 04:13:34;;;;;;;;;;;;;;;;;;4993254;28;20017;-81
2023/08/31 04:16:01;;;;;;;;;;;;;;;;;;5020154;28;19988;-80
2023/08/31 04:18:27;;;;;;;;;;;;;;;;;;5019829;28;19933;-81
2023/08/31 04:20:54;;;;;;;;;;;;;;;;;;5016912;28;19929;-82
2023/08/31 04:23:20;;;;;;;;;;;;;;;;;;4988080;28;20375;-83
2023/08/31 04:25:47;;;;;;;;;;;;;;;;;;4984359;28;20380;-82
2023/08/31 04:28:16;;;;;;;;;;;;;;;;;;5002463;28;20053;-82
2023/08/31 04:30:44;;;;;;;;;;;;;;;;;;4983933;28;20394;-81
2023/08/31 04:33:11;;;;;;;;;;;;;;;;;;4999884;28;19972;-81
2023/08/31 04:35:38;;;;;;;;;;;;;;;;;;4983670;28;19965;-79
2023/08/31 04:38:04;;;;;;;;;;;;;;;;;;5023229;28;19921;-81
2023/08/31 04:40:31;;;;;;;;;;;;;;;;;;5017184;28;19922;-80
2023/08/31 04:42:57;;;;;;;;;;;;;;;;;;5012643;28;19925;-81
2023/08/31 04:45:24;;;;;;;;;;;;;;;;;;5008978;28;19926;-80
2023/08/31 04:47:51;;;;;;;;;;;;;;;;;;5004764;28;19957;-82
2023/08/31 04:50:17;;;;;;;;;;;;;;;;;;4999871;28;19922;-82
2023/08/31 04:52:44;;;;;;;;;;;;;;;;;;5008080;28;19926;-82
2023/08/31 04:55:12;;;;;;;;;;;;;;;;;;4985071;28;19925;-82
2023/08/31 04:57:39;;;;;;;;;;;;;;;;;;5030441;28;19929;-81
2023/08/31 05:00:08;;;;;;;;;;;;;;;;;;4982729;28;20016;-82
2023/08/31 05:02:35;;;;;;;;;;;;;;;;;;5008580;28;20012;-82
2023/08/31 05:05:02;;;;;;;;;;;;;;;;;;4988229;28;19953;-81
2023/08/31 05:07:29;;;;;;;;;;;;;;;;;;4982675;28;20410;-82
2023/08/31 05:09:55;;;;;;;;;;;;;;;;;;4999799;28;19925;-81
2023/08/31 05:12:21;;;;;;;;;;;;;;;;;;5018805;28;19926;-80
2023/08/31 05:14:48;;;;;;;;;;;;;;;;;;4982977;28;19953;-80
2023/08/31 05:17:14;;;;;;;;;;;;;;;;;;5000701;28;20394;-80
2023/08/31 05:19:41;;;;;;;;;;;;;;;;;;5014399;28;19922;-82
2023/08/31 05:22:07;;;;;;;;;;;;;;;;;;5020019;28;19929;-80
2023/08/31 05:24:34;;;;;;;;;;;;;;;;;;5015611;28;20229;-81
2023/08/31 05:27:00;;;;;;;;;;;;;;;;;;4982385;28;19922;-80
2023/08/31 05:29:26;;;;;;;;;;;;;;;;;;5015784;28;20429;-81
2023/08/31 05:31:53;;;;;;;;;;;;;;;;;;4985654;28;19969;-80
2023/08/31 05:34:19;;;;;;;;;;;;;;;;;;5013143;28;19922;-78
2023/08/31 05:36:46;;;;;;;;;;;;;;;;;;5014233;28;20092;-80
2023/08/31 05:39:12;;;;;;;;;;;;;;;;;;4983401;28;19972;-80
2023/08/31 05:41:39;;;;;;;;;;;;;;;;;;5013117;28;20008;-80
2023/08/31 05:44:06;;;;;;;;;;;;;;;;;;4989351;28;19957;-80
2023/08/31 05:46:32;;;;;;;;;;;;;;;;;;4988083;28;20024;-81
2023/08/31 05:48:59;;;;;;;;;;;;;;;;;;4988705;28;19926;-80
2023/08/31 05:51:25;;;;;;;;;;;;;;;;;;4998665;28;20290;-79
2023/08/31 05:53:53;;;;;;;;;;;;;;;;;;4989777;28;19922;-79
2023/08/31 05:56:19;;;;;;;;;;;;;;;;;;4983340;28;19945;-79
2023/08/31 05:58:47;;;;;;;;;;;;;;;;;;5005384;28;19926;-82
2023/08/31 06:01:13;;;;;;;;;;;;;;;;;;4985916;28;19926;-81
2023/08/31 06:03:40;;;;;;;;;;;;;;;;;;4980551;28;19944;-78
2023/08/31 06:06:07;;;;;;;;;;;;;;;;;;5018363;28;19930;-80
2023/08/31 06:08:34;;;;;;;;;;;;;;;;;;4990341;28;19925;-80
2023/08/31 06:11:00;;;;;;;;;;;;;;;;;;5015069;28;20012;-78
2023/08/31 06:13:27;;;;;;;;;;;;;;;;;;5011108;28;19930;-80
2023/08/31 06:15:55;;;;;;;;;;;;;;;;;;5000020;28;19929;-80
2023/08/31 06:18:22;;;;;;;;;;;;;;;;;;4982832;28;19929;-81
2023/08/31 06:20:48;;;;;;;;;;;;;;;;;;4981925;28;19964;-79
2023/08/31 06:23:14;;;;;;;;;;;;;;;;;;5017732;28;19969;-80
2023/08/31 06:25:41;;;;;;;;;;;;;;;;;;4991977;28;19926;-82
2023/08/31 06:28:11;;;;;;;;;;;;;;;;;;5006752;28;19985;-78
2023/08/31 06:30:38;;;;;;;;;;;;;;;;;;5014965;28;19925;-80
2023/08/31 06:33:04;;;;;;;;;;;;;;;;;;5012211;28;20716;-80
2023/08/31 06:35:33;;;;;;;;;;;;;;;;;;5015731;28;19921;-80
2023/08/31 06:38:00;;;;;;;;;;;;;;;;;;5012786;28;19981;-80
2023/08/31 06:40:27;;;;;;;;;;;;;;;;;;5013255;28;19921;-79
2023/08/31 06:42:53;;;;;;;;;;;;;;;;;;4981619;28;20538;-78
2023/08/31 06:45:20;;;;;;;;;;;;;;;;;;5012455;28;19977;-79
2023/08/31 06:47:46;;;;;;;;;;;;;;;;;;4981348;28;20347;-80
2023/08/31 06:50:13;;;;;;;;;;;;;;;;;;5010531;28;20021;-80
2023/08/31 06:52:41;;;;;;;;;;;;;;;;;;5014975;28;20343;-80
2023/08/31 06:55:07;;;;;;;;;;;;;;;;;;5034251;28;20371;-80
2023/08/31 06:57:34;;;;;;;;;;;;;;;;;;5030016;28;19926;-77
2023/08/31 07:00:00;;;;;;;;;;;;;;;;;;5000881;28;19968;-78
2023/08/31 07:02:28;;;;;;;;;;;;;;;;;;4982849;28;19921;-79
2023/08/31 07:04:55;;;;;;;;;;;;;;;;;;5012731;28;20511;-78
2023/08/31 07:07:21;;;;;;;;;;;;;;;;;;4990225;28;19972;-78
2023/08/31 07:09:48;;;;;;;;;;;;;;;;;;5013545;28;19930;-80
2023/08/31 07:12:16;;;;;;;;;;;;;;;;;;4986676;28;19936;-78
2023/08/31 07:14:43;;;;;;;;;;;;;;;;;;4999618;28;19944;-80
2023/08/31 07:17:10;;;;;;;;;;;;;;;;;;4995139;28;19922;-81
2023/08/31 07:19:37;;;;;;;;;;;;;;;;;;5005358;28;19925;-80
2023/08/31 07:22:04;;;;;;;;;;;;;;;;;;4985066;28;19922;-77
2023/08/31 07:24:31;;;;;;;;;;;;;;;;;;5000835;28;20021;-79
2023/08/31 07:26:57;;;;;;;;;;;;;;;;;;5022371;28;19957;-81
2023/08/31 07:29:24;;;;;;;;;;;;;;;;;;5019391;28;19922;-80
2023/08/31 07:31:52;;;;;;;;;;;;;;;;;;4985879;28;20037;-81
2023/08/31 07:34:18;;;;;;;;;;;;;;;;;;4989291;28;20374;-84
2023/08/31 07:36:45;;;;;;;;;;;;;;;;;;5020328;28;19926;-79
2023/08/31 07:39:11;;;;;;;;;;;;;;;;;;5008787;28;19922;-80
2023/08/31 07:41:38;;;;;;;;;;;;;;;;;;5015777;28;19922;-80
2023/08/31 07:44:04;;;;;;;;;;;;;;;;;;5035571;28;19929;-80
2023/08/31 07:46:31;;;;;;;;;;;;;;;;;;5018663;28;20305;-82
2023/08/31 07:48:57;;;;;;;;;;;;;;;;;;4981439;28;20264;-80
2023/08/31 07:51:25;;;;;;;;;;;;;;;;;;4994276;28;19922;-80
2023/08/31 07:53:52;;;;;;;;;;;;;;;;;;5019685;28;19976;-80
2023/08/31 07:56:19;;;;;;;;;;;;;;;;;;4990895;28;19973;-81
2023/08/31 07:58:45;;;;;;;;;;;;;;;;;;5008360;28;19972;-80
2023/08/31 08:01:11;;;;;;;;;;;;;;;;;;5017240;28;19968;-80
2023/08/31 08:03:38;;;;;;;;;;;;;;;;;;5015902;28;20285;-79
2023/08/31 08:06:04;;;;;;;;;;;;;;;;;;5014159;28;19922;-79
2023/08/31 08:08:32;;;;;;;;;;;;;;;;;;4987940;28;20020;-80
2023/08/31 08:11:00;;;;;;;;;;;;;;;;;;5013275;28;20021;-79
2023/08/31 08:13:26;;;;;;;;;;;;;;;;;;5035085;28;20383;-80
2023/08/31 08:15:52;;;;;;;;;;;;;;;;;;4985306;28;19961;-79
2023/08/31 08:18:19;;;;;;;;;;;;;;;;;;4987944;28;20356;-79
2023/08/31 08:20:45;;;;;;;;;;;;;;;;;;5005438;28;20042;-82
2023/08/31 08:23:11;;;;;;;;;;;;;;;;;;5015649;28;19997;-81
2023/08/31 08:25:38;;;;;;;;;;;;;;;;;;5001103;28;19928;-80
2023/08/31 08:28:05;;;;;;;;;;;;;;;;;;5018894;28;19925;-80
2023/08/31 08:30:33;;;;;;;;;;;;;;;;;;5018929;28;20015;-80
2023/08/31 08:32:59;;;;;;;;;;;;;;;;;;5001290;28;19925;-80
2023/08/31 08:35:26;;;;;;;;;;;;;;;;;;5016314;28;20383;-80
2023/08/31 08:37:53;;;;;;;;;;;;;;;;;;4981612;28;19926;-80
2023/08/31 08:40:19;;;;;;;;;;;;;;;;;;5009410;28;19980;-80
2023/08/31 08:42:46;;;;;;;;;;;;;;;;;;5018638;28;19972;-81
2023/08/31 08:45:15;;;;;;;;;;;;;;;;;;5015450;28;19929;-78
2023/08/31 08:47:41;;;;;;;;;;;;;;;;;;5019244;28;20008;-79
2023/08/31 08:50:08;;;;;;;;;;;;;;;;;;4986534;28;20473;-79
2023/08/31 08:52:35;;;;;;;;;;;;;;;;;;5032830;28;20391;-79
2023/08/31 08:55:02;;;;;;;;;;;;;;;;;;5030826;28;20019;-78
2023/08/31 08:57:31;;;;;;;;;;;;;;;;;;5014481;28;19922;-80
2023/08/31 08:59:59;;;;;;;;;;;;;;;;;;5015347;28;19929;-80
2023/08/31 09:02:25;;;;;;;;;;;;;;;;;;5031499;28;19926;-79
2023/08/31 09:04:54;;;;;;;;;;;;;;;;;;5008012;28;19922;-80
2023/08/31 09:07:21;;;;;;;;;;;;;;;;;;5015652;28;19922;-78
2023/08/31 09:09:48;;;;;;;;;;;;;;;;;;5018313;28;20005;-78
2023/08/31 09:12:16;;;;;;;;;;;;;;;;;;5020882;28;20015;-79
2023/08/31 09:14:43;;;;;;;;;;;;;;;;;;5014787;28;19925;-80
2023/08/31 09:17:10;;;;;;;;;;;;;;;;;;5015545;28;19922;-76
2023/08/31 09:19:37;;;;;;;;;;;;;;;;;;4997645;28;19925;-77
2023/08/31 09:22:03;;;;;;;;;;;;;;;;;;4982673;28;19973;-77
2023/08/31 09:24:40;;;;;;;18.10;2.10;;;;;;;;;;4986876;28;20422;-80
2023/08/31 09:27:08;;;;;;;16.23;1.40;;;;;;;;;;4988018;28;20467;-80
2023/08/31 09:29:37;;;;;;;14.68;1.60;;;;;;;;;;5008705;28;20509;-79
2023/08/31 09:32:04;;;;;;;15.88;1.65;;;;;;;;;;4981917;28;20412;-79
2023/08/31 09:34:32;;;;;;;13.70;1.70;;;;;;;;;;4985094;28;20247;-80
2023/08/31 09:37:03;;;;;;;14.17;2.03;;;;;;;;;;4991445;28;20421;-79
2023/08/31 09:39:35;;;;;;;14.67;1.73;;;;;;;;;;4988896;28;20423;-79
2023/08/31 09:42:04;;;;;;;14.10;1.50;;;;;;;;;;4983625;28;20505;-80
2023/08/31 09:44:31;;;;;;;;;;;;;;;;;;4999620;28;20393;-79
2023/08/31 09:46:57;;;;;;;;;;;;;;;;;;5016780;28;20421;-80
2023/08/31 09:49:24;;;;;;;14.30;1.60;;;;;;;;;;4997186;28;20201;-80
2023/08/31 09:51:51;;;;;;;15.00;1.47;;;;;;;;;;4989305;28;20487;-78
2023/08/31 09:54:19;;;;;;;14.32;1.55;;;;;;;;;;4997386;28;20447;-81
2023/08/31 09:56:45;;;;;;;;;;;;;;;;;;4981304;28;20046;-79
2023/08/31 09:59:14;;;;;;;15.63;1.65;;;;;;;;;;4984833;28;20466;-81
2023/08/31 10:01:42;;;;;;;14.00;1.70;;;;;;;;;;4991090;28;20203;-81
2023/08/31 10:04:08;;;;;;;15.30;1.53;;;;;;;;;;4986845;28;20473;-79
2023/08/31 10:06:36;;;;;;;17.00;1.67;;;;;;;;;;4985325;28;20440;-79
2023/08/31 10:09:03;;;;;;;15.33;1.77;;;;;;;;;;4981412;28;20605;-81
2023/08/31 10:11:30;;;;;;;15.20;1.40;;;;;;;;;;4989902;28;20457;-78
2023/08/31 10:13:57;;;;;;;14.37;1.57;;;;;;;;;;5013256;28;20446;-80
2023/08/31 10:16:29;;;;;;;13.50;1.60;;;;;;;;;;4986016;28;20444;-80
2023/08/31 10:18:56;;;;;;;15.00;1.70;;;;;;;;;;4982743;28;20436;-78
2023/08/31 10:21:23;;;;;;;14.43;1.40;;;;;;;;;;4979834;28;20443;-80
2023/08/31 10:23:50;;;;;;;13.50;1.47;;;;;;;;;;4988467;28;20479;-80
2023/08/31 10:26:22;;;;;;;13.33;1.60;;;;;;;;;;4985241;28;20473;-80
2023/08/31 10:28:49;;;;;;;15.50;1.70;;;;;;;;;;4984741;28;20425;-80
2023/08/31 10:31:17;;;;;;;14.03;1.67;;;;;;;;;;4984305;28;20470;-79
2023/08/31 10:33:46;;;;;;;13.07;1.50;;;;;;;;;;4978951;28;20439;-79
2023/08/31 10:36:14;;;;;;;15.40;1.70;;;;;;;;;;4987406;28;20448;-79
2023/08/31 10:38:42;;;;;;;14.60;1.50;;;;;;;;;;4980399;28;20462;-76
2023/08/31 10:41:20;;;;;;;13.17;1.27;;;;;;;;;;4988868;28;20451;-78
2023/08/31 10:43:46;;;;;;;;;;;;;;;;;;4990604;28;20289;-79
2023/08/31 10:46:29;;;;;;;13.80;1.50;;;;;;;;;;5008118;28;20501;-80
2023/08/31 10:48:59;;;;;;;15.00;1.60;;;;;;;;;;4984055;28;20195;-80
2023/08/31 10:51:27;;;;;;;15.13;1.60;;;;;;;;;;4982817;28;20447;-78
2023/08/31 10:54:14;;;;;;;16.25;1.80;;;;;;;;;;4981005;28;20412;-80
2023/08/31 10:56:53;;;;;;;14.17;1.33;;;;;;;;;;4986455;28;20195;-80
2023/08/31 10:59:20;;;;;;;13.70;1.60;;;;;;;;;;4989395;28;20451;-78
2023/08/31 11:01:52;;;;;;;13.43;1.40;;;;;;;;;;4985447;28;20454;-80
2023/08/31 11:04:22;;;;;;;13.73;1.93;;;;;;;;;;4993684;28;20553;-81
2023/08/31 11:06:49;;;;;;;14.23;1.40;;;;;;;;;;4994474;28;20438;-79
2023/08/31 11:09:20;;;;;;;16.47;2.33;;;;;;;;;;4988827;28;20950;-79
2023/08/31 11:11:48;;;;;;;17.53;1.97;;;;;;;;;;4982732;28;20940;-80
2023/08/31 11:14:16;;;;;;;;;;;;;;;;;;4982766;28;20286;-81
2023/08/31 11:16:42;;;;;;;;;;;;;;;;;;4988701;28;19929;-83
2023/08/31 11:19:10;;;;;;;15.45;1.75;;;;;;;;;;4987906;28;20420;-79
2023/08/31 11:21:39;;;;;;;14.02;1.50;;;;;;;;;;5015305;28;20518;-77
2023/08/31 11:24:06;;;;;;;;;;;;;;;;;;5018088;28;20129;-81
2023/08/31 11:26:33;;;;;;;17.35;1.73;;;;;;;;;;5001208;28;21305;-81
2023/08/31 11:29:00;;;;;;;16.67;2.20;;;;;;;;;;4988380;28;20206;-80
2023/08/31 11:31:26;;;;;;;13.07;1.60;;;;;;;;;;4986224;28;20483;-80
2023/08/31 11:33:54;;;;;;;16.23;1.90;;;;;;;;;;4992883;28;20537;-81
2023/08/31 11:36:21;;;;;;;13.30;1.30;;;;;;;;;;4987001;28;20443;-81
2023/08/31 11:38:50;;;;;;;14.00;1.57;;;;;;;;;;4983695;28;20959;-81
2023/08/31 11:41:17;;;;;;;;;;;;;;;;;;5006245;28;20333;-81
2023/08/31 11:43:45;;;;;;;14.60;1.50;;;;;;;;;;4984104;28;20482;-81
2023/08/31 11:46:12;;;;;;;16.10;1.80;;;;;;;;;;5020495;28;20200;-79
2023/08/31 11:48:40;;;;;;;17.90;1.97;;;;;;;;;;4970882;28;20810;-81
2023/08/31 11:51:08;;;;;;;15.93;2.00;;;;;;;;;;4990042;28;20454;-81
2023/08/31 11:53:35;;;;;;;14.80;1.63;;;;;;;;;;4986757;28;20418;-80
2023/08/31 11:56:04;;;;;;;;;;;;;;;;;;4983391;28;20048;-83
2023/08/31 11:58:32;;;;;;;15.45;1.70;;;;;;;;;;4982594;28;20438;-79
2023/08/31 12:00:59;;;;;;;14.52;1.40;;;;;;;;;;4991263;28;20491;-79
2023/08/31 12:03:26;;;;;;;;;;;;;;;;;;4988176;28;20073;-77
2023/08/31 12:06:06;;;;;;;14.07;1.52;;;;;;;;;;5009477;28;20427;-79
2023/08/31 12:08:33;;;;;;;15.45;1.30;;;;;;;;;;4973225;28;21067;-81
2023/08/31 12:11:00;;;;;;;15.55;1.40;;;;;;;;;;4972829;28;20426;-80
2023/08/31 12:13:30;;;;;;;;;;;;;;;;;;4992775;28;20141;-80
2023/08/31 12:16:01;;;;;;;14.70;1.33;;;;;;;;;;5013954;28;20475;-79
2023/08/31 12:18:29;;;;;;;15.98;1.80;;;;;;;;;;5014578;28;21010;-78
2023/08/31 12:20:57;;;;;;;15.45;1.65;;;;;;;;;;4984171;28;20417;-79
2023/08/31 12:23:23;;;;;;;15.10;1.63;;;;;;;;;;4985856;28;20406;-80
2023/08/31 12:25:50;;;;;;;15.60;1.90;;;;;;;;;;4983769;28;20420;-79
2023/08/31 12:28:17;;;;;;;14.13;1.70;;;;;;;;;;4984192;28;20470;-80
2023/08/31 12:30:47;;;;;;;15.13;1.80;;;;;;;;;;4981685;28;20426;-80
2023/08/31 12:33:17;;;;;;;15.77;1.58;;;;;;;;;;4992574;28;20497;-79
2023/08/31 12:35:44;;;;;;;18.25;2.22;;;;;;;;;;4985765;28;20865;-78
2023/08/31 12:38:11;;;;;;;14.90;1.60;;;;;;;;;;5011999;28;20424;-76
2023/08/31 12:40:41;;;;;;;16.10;1.47;;;;;;;;;;4980034;28;20487;-79
2023/08/31 12:43:09;;;;;;;16.10;1.70;;;;;;;;;;4990860;28;20436;-79
2023/08/31 12:45:36;;;;;;;14.88;1.42;;;;;;;;;;4989349;28;20949;-79
2023/08/31 12:48:05;;;;;;;14.90;1.48;;;;;;;;;;4986190;28;20410;-76
2023/08/31 12:50:33;;;;;;;17.60;1.90;;;;;;;;;;4981471;28;20428;-77
2023/08/31 12:53:00;;;;;;;15.10;1.70;;;;;;;;;;4981122;28;20437;-77
2023/08/31 12:55:27;;;;;;;18.25;2.90;;;;;;;;;;4991775;28;20415;-77
2023/08/31 12:57:53;;;;;;;15.43;1.80;;;;;;;;;;4999390;28;20463;-80
2023/08/31 13:00:20;;;;;;;15.38;1.60;;;;;;;;;;4987400;28;20402;-78
2023/08/31 13:02:47;;;;;;;15.18;1.90;;;;;;;;;;4983008;28;20758;-78
2023/08/31 13:05:14;;;;;;;15.85;1.90;;;;;;;;;;4990765;28;20423;-77
2023/08/31 13:07:43;;;;;;;15.30;2.20;;;;;;;;;;4979983;28;20254;-79
2023/08/31 13:10:10;;;;;;;14.60;2.57;;;;;;;;;;4990341;28;20444;-78
2023/08/31 13:12:37;;;;;;;13.33;1.57;;;;;;;;;;4984533;28;20439;-78
2023/08/31 13:15:04;;;;;;;15.50;1.83;;;;;;;;;;4990163;28;20475;-76
2023/08/31 13:17:30;;;;;;;;;;;;;;;;;;4980476;28;20285;-81
2023/08/31 13:19:57;;;;;;;;;;;;;;;;;;5015597;28;19935;-79
2023/08/31 13:22:24;;;;;;;15.20;1.63;;;;;;;;;;4981513;28;20261;-78
2023/08/31 13:24:52;;;;;;;17.45;1.83;;;;;;;;;;4981541;28;20415;-78
2023/08/31 13:27:18;;;;;;;15.02;1.60;;;;;;;;;;4984180;28;20446;-78
2023/08/31 13:29:46;;;;;;;16.07;1.80;;;;;;;;;;4986901;28;20419;-78
2023/08/31 13:32:13;;;;;;;15.30;1.60;;;;;;;;;;4988881;28;20797;-80
2023/08/31 13:34:40;;;;;;;15.30;1.70;;;;;;;;;;4987502;28;20823;-80
2023/08/31 13:37:07;;;;;;;15.47;2.00;;;;;;;;;;4981219;28;20412;-80
2023/08/31 13:39:36;;;;;;;14.10;1.70;;;;;;;;;;4990901;28;20406;-80
2023/08/31 13:42:06;;;;;;;16.50;1.75;;;;;;;;;;4982289;28;20417;-79
2023/08/31 13:44:35;;;;;;;15.23;1.60;;;;;;;;;;5005553;28;20468;-80
2023/08/31 13:47:03;;;;;;;16.58;1.90;;;;;;;;;;4982158;28;20418;-78
2023/08/31 13:49:30;;;;;;;15.90;1.60;;;;;;;;;;4983563;28;20443;-76
2023/08/31 13:51:59;;;;;;;14.60;1.70;;;;;;;;;;4971774;28;20486;-77
2023/08/31 13:54:26;;;;;;;14.75;1.50;;;;;;;;;;4982718;28;20434;-76
2023/08/31 13:56:52;;;;;;;16.33;1.70;;;;;;;;;;4968781;28;20478;-78
2023/08/31 13:59:20;;;;;;;15.60;1.77;;;;;;;;;;4977514;28;20493;-81
2023/08/31 14:01:48;;;;;;;14.32;1.35;;;;;;;;;;4982157;28;20408;-79
2023/08/31 14:04:16;;;;;;;14.85;1.60;;;;;;;;;;4989838;28;20448;-78
2023/08/31 14:06:44;;;;;;;15.98;1.50;;;;;;;;;;5014382;28;20424;-79
2023/08/31 14:09:11;;;;;;;14.60;1.40;;;;;;;;;;4983522;28;20466;-77
2023/08/31 14:11:38;;;;;;;14.55;1.80;;;;;;;;;;4973449;28;20430;-78
2023/08/31 14:14:05;;;;;;;16.67;1.80;;;;;;;;;;4982748;28;20416;-79
2023/08/31 14:16:36;;;;;;;14.60;1.70;;;;;;;;;;4982206;28;20439;-80
2023/08/31 14:19:03;;;;;;;14.43;1.50;;;;;;;;;;4979603;28;21068;-80
2023/08/31 14:21:30;;;;;;;16.30;1.67;;;;;;;;;;4978712;28;20412;-79
2023/08/31 14:23:57;;;;;;;14.57;1.60;;;;;;;;;;4979371;28;20447;-77
2023/08/31 14:26:24;;;;;;;14.20;1.50;;;;;;;;;;4978104;28;20415;-78
2023/08/31 14:28:51;;;;;;;15.30;1.50;;;;;;;;;;4981558;28;20418;-77
2023/08/31 14:31:19;;;;;;;16.67;1.50;;;;;;;;;;4977249;28;20420;-79
2023/08/31 14:33:47;;;;;;;16.27;1.70;;;;;;;;;;4982628;28;20479;-77
2023/08/31 14:36:15;;;;;;;15.88;1.60;;;;;;;;;;4961813;28;20471;-74
2023/08/31 14:38:45;;;;;;;13.50;1.73;;;;;;;;;;5004895;28;20254;-77
2023/08/31 14:41:12;;;;;;;13.33;1.50;;;;;;;;;;4984272;28;20438;-78
2023/08/31 14:43:39;;;;;;;15.23;1.60;;;;;;;;;;4984083;28;20469;-77
2023/08/31 14:46:05;;;;;;;;;;;;;;;;;;4990455;28;20289;-76
2023/08/31 14:48:32;;;;;;;14.90;1.87;;;;;;;;;;4980219;28;20210;-76
2023/08/31 14:51:01;;;;;;;15.93;1.60;;;;;;;;;;4978456;28;20499;-76
2023/08/31 14:53:28;;;;;;;15.33;1.67;;;;;;;;;;4997277;28;20471;-75
2023/08/31 14:55:55;;;;;;;14.33;1.63;;;;;;;;;;4981320;28;20449;-75
2023/08/31 14:58:21;;;;;;;;;;;;;;;;;;4983325;28;20312;-77
2023/08/31 15:00:48;;;;;;;;;;;;;;;;;;5006774;28;19957;-76
2023/08/31 15:03:15;;;;;;;13.03;1.43;;;;;;;;;;4981340;28;20627;-75
2023/08/31 15:05:42;;;;;;;;;;;;;;;;;;4974800;28;20285;-75
2023/08/31 15:08:11;;;;;;;14.65;1.50;;;;;;;;;;4986823;28;20759;-75
2023/08/31 15:10:39;;;;;;;15.00;1.40;;;;;;;;;;4987862;28;20533;-75
2023/08/31 15:13:07;;;;;;;14.30;1.50;;;;;;;;;;4979969;28;20443;-79
2023/08/31 15:15:34;;;;;;;17.40;1.83;;;;;;;;;;4990019;28;20511;-76
2023/08/31 15:18:00;;;;;;;16.45;1.70;;;;;;;;;;4989278;28;20410;-79
2023/08/31 15:20:27;;;;;;;14.30;1.50;;;;;;;;;;4980237;28;20887;-77
2023/08/31 15:22:55;;;;;;;15.00;2.00;;;;;;;;;;4978201;28;20823;-77
2023/08/31 15:25:23;;;;;;;13.10;1.60;;;;;;;;;;5004183;28;20563;-77
2023/08/31 15:27:50;;;;;;;14.50;1.50;;;;;;;;;;5009484;28;20531;-76
2023/08/31 15:30:17;;;;;;;17.40;1.90;;;;;;;;;;4964185;28;20468;-76
2023/08/31 15:32:44;;;;;;;14.60;1.50;;;;;;;;;;4982522;28;20868;-78
2023/08/31 15:35:11;;;;;;;14.40;1.65;;;;;;;;;;4983859;28;20420;-76
2023/08/31 15:37:37;;;;;;;15.70;1.50;;;;;;;;;;4976804;28;20611;-76
2023/08/31 15:40:05;;;;;;;15.40;2.03;;;;;;;;;;4983977;28;20411;-75
2023/08/31 15:42:33;;;;;;;15.18;1.83;;;;;;;;;;4983902;28;20835;-77
2023/08/31 15:45:00;;;;;;;14.20;1.60;;;;;;;;;;4990181;28;20420;-78
2023/08/31 15:47:27;;;;;;;16.90;2.83;;;;;;;;;;4999591;28;20438;-77
2023/08/31 15:49:55;;;;;;;14.57;1.70;;;;;;;;;;4983626;28;20404;-75
2023/08/31 15:52:22;;;;;;;14.80;1.83;;;;;;;;;;4985865;28;20434;-76